EPPO/POZ METAR and TAF weather

Enter ICAO airport designator
Station Type Date Time Source
EPPO METAR 2021/07/30 08:00 UTC NOAA

EPPO 300800Z 24011KT CAVOK 23/08 Q1010


Station Type Date Time Source
EPPO Decoded METAR 2021/07/30 08:00 UTC NOAA

Poznan, Poland (EPPO) 52-25N 016-50E 92M
Jul 30, 2021 - 04:00 AM EDT / 2021.07.30 0800 UTC
Wind: from the WSW (240 degrees) at 13 MPH (11 KT):0
Visibility: greater than 7 mile(s):0
Temperature: 73 F (23 C)
Dew Point: 46 F (8 C)
Relative Humidity: 38%
Pressure (altimeter): 29.83 in. Hg (1010 hPa)
ob: EPPO 300800Z 24011KT CAVOK 23/08 Q1010
cycle: 8

Station Type Date Time Source
EPPO TAF 2021/07/30 06:33 UTC NOAA

TAF EPPO 300530Z 3006/3106 24004KT CAVOK
BECMG 3006/3009 25014KT
TEMPO 3009/3015 27016G27KT
BECMG 3016/3019 20004KT

Example: see airport list